createdAt,value
2022-09-15T00:00:29.365Z,14.27
2022-09-15T00:02:56.328Z,14.29
2022-09-15T00:05:23.230Z,14.31
2022-09-15T00:07:49.795Z,14.28
2022-09-15T00:10:17.517Z,14.34
2022-09-15T00:12:44.059Z,14.31
2022-09-15T00:15:14.673Z,14.29
2022-09-15T00:17:43.021Z,14.32
2022-09-15T00:20:10.706Z,14.30
2022-09-15T00:22:37.272Z,14.34
2022-09-15T00:25:04.380Z,14.37
2022-09-15T00:27:32.638Z,14.41
2022-09-15T00:29:59.282Z,14.37
2022-09-15T00:32:26.327Z,14.38
2022-09-15T00:34:53.653Z,14.38
2022-09-15T00:37:20.837Z,14.37
2022-09-15T00:39:47.825Z,14.30
2022-09-15T00:42:17.155Z,14.34
2022-09-15T00:44:50.850Z,14.37
2022-09-15T00:47:20.740Z,14.39
2022-09-15T00:49:51.010Z,14.37
2022-09-15T00:52:23.693Z,14.39
2022-09-15T00:54:56.473Z,14.42
2022-09-15T00:57:40.525Z,14.43
2022-09-15T01:00:11.360Z,14.44
2022-09-15T01:02:39.707Z,14.41
2022-09-15T01:05:10.678Z,14.42
2022-09-15T01:07:52.573Z,14.41
2022-09-15T01:10:22.681Z,14.42
2022-09-15T01:12:49.312Z,14.43
2022-09-15T01:15:16.535Z,14.41
2022-09-15T01:18:15.876Z,14.43
2022-09-15T01:21:03.937Z,14.43
2022-09-15T01:24:05.582Z,14.46
2022-09-15T01:26:32.055Z,14.47
2022-09-15T01:29:30.549Z,14.50
2022-09-15T01:32:37.082Z,14.51
2022-09-15T01:35:22.289Z,14.51
2022-09-15T01:37:58.561Z,14.49
2022-09-15T01:40:29.785Z,14.51
2022-09-15T01:42:58.337Z,14.51
2022-09-15T01:45:32.884Z,14.51
2022-09-15T01:48:01.985Z,14.53
2022-09-15T01:50:34.221Z,14.54
2022-09-15T01:53:04.309Z,14.55
2022-09-15T01:55:40.838Z,14.52
2022-09-15T01:58:08.096Z,14.52
2022-09-15T02:00:39.176Z,14.43
2022-09-15T02:03:18.757Z,14.34
2022-09-15T02:05:52.865Z,14.10
2022-09-15T02:08:42.858Z,13.95
2022-09-15T02:11:19.610Z,13.85
2022-09-15T02:13:59.993Z,13.78
2022-09-15T02:16:30.945Z,13.83
2022-09-15T02:19:11.228Z,13.92
2022-09-15T02:21:59.828Z,13.95
2022-09-15T02:24:35.545Z,13.95
2022-09-15T02:27:03.956Z,13.91
2022-09-15T02:29:36.228Z,13.95
2022-09-15T02:32:07.510Z,13.96
2022-09-15T02:34:40.419Z,13.86
2022-09-15T02:37:09.947Z,13.95
2022-09-15T02:39:43.010Z,13.97
2022-09-15T02:42:10.691Z,13.97
2022-09-15T02:44:37.581Z,13.94
2022-09-15T02:47:04.354Z,13.92
2022-09-15T02:49:30.990Z,13.99
2022-09-15T02:51:57.653Z,13.95
2022-09-15T02:54:24.222Z,13.91
2022-09-15T02:56:50.767Z,13.90
2022-09-15T02:59:17.371Z,13.94
2022-09-15T03:01:45.044Z,13.95
2022-09-15T03:04:11.539Z,13.93
2022-09-15T03:06:38.048Z,13.87
2022-09-15T03:09:08.149Z,13.80
2022-09-15T03:11:35.976Z,13.83
2022-09-15T03:14:06.050Z,13.86
2022-09-15T03:16:34.616Z,13.84
2022-09-15T03:19:01.398Z,13.90
2022-09-15T03:21:29.845Z,13.90
2022-09-15T03:23:57.784Z,13.81
2022-09-15T03:26:24.876Z,13.75
2022-09-15T03:28:51.427Z,13.71
2022-09-15T03:31:17.950Z,13.68
2022-09-15T03:33:44.514Z,13.61
2022-09-15T03:36:11.021Z,13.55
2022-09-15T03:38:37.541Z,13.55
2022-09-15T03:41:06.490Z,13.56
2022-09-15T03:43:33.554Z,13.51
2022-09-15T03:46:00.523Z,13.49
2022-09-15T03:48:28.629Z,13.54
2022-09-15T03:50:55.103Z,13.45
2022-09-15T03:53:21.863Z,13.45
2022-09-15T03:55:49.611Z,13.49
2022-09-15T03:58:18.640Z,13.39
2022-09-15T04:00:46.782Z,13.35
2022-09-15T04:03:14.350Z,13.34
2022-09-15T04:05:42.276Z,13.32
2022-09-15T04:08:12.545Z,13.39
2022-09-15T04:10:40.456Z,13.37
2022-09-15T04:13:07.135Z,13.34
2022-09-15T04:15:33.725Z,13.24
2022-09-15T04:18:00.527Z,13.17
2022-09-15T04:20:27.178Z,13.18
2022-09-15T04:22:53.680Z,13.14
2022-09-15T04:25:20.273Z,13.08
2022-09-15T04:27:46.862Z,13.00
2022-09-15T04:30:13.505Z,13.00
2022-09-15T04:32:40.074Z,12.96
2022-09-15T04:35:07.166Z,12.89
2022-09-15T04:37:33.759Z,12.90
2022-09-15T04:40:01.385Z,12.96
2022-09-15T04:42:28.129Z,12.98
2022-09-15T04:44:54.674Z,13.03
2022-09-15T04:47:21.235Z,13.03
2022-09-15T04:49:47.801Z,13.08
2022-09-15T04:52:14.394Z,13.08
2022-09-15T04:54:41.012Z,13.10
2022-09-15T04:57:07.668Z,13.07
2022-09-15T04:59:34.545Z,13.04
2022-09-15T05:02:01.257Z,12.99
2022-09-15T05:04:28.095Z,13.03
2022-09-15T05:06:54.738Z,13.05
2022-09-15T05:09:21.343Z,13.06
2022-09-15T05:11:47.941Z,13.13
2022-09-15T05:14:14.689Z,13.03
2022-09-15T05:16:41.592Z,13.13
2022-09-15T05:19:10.399Z,13.15
2022-09-15T05:21:37.095Z,13.13
2022-09-15T05:24:03.629Z,13.15
2022-09-15T05:26:30.374Z,13.14
2022-09-15T05:28:57.932Z,13.13
2022-09-15T05:31:27.370Z,13.12
2022-09-15T05:33:54.347Z,13.17
2022-09-15T05:36:25.219Z,13.20
2022-09-15T05:38:56.852Z,13.17
2022-09-15T05:41:24.850Z,13.20
2022-09-15T05:43:51.500Z,13.28
2022-09-15T05:46:19.610Z,13.34
2022-09-15T05:48:46.901Z,13.43
2022-09-15T05:51:14.374Z,13.46
2022-09-15T05:53:41.476Z,13.47
2022-09-15T05:56:12.173Z,13.45
2022-09-15T05:58:43.943Z,13.42
2022-09-15T06:01:19.669Z,13.46
2022-09-15T06:03:47.154Z,13.49
2022-09-15T06:06:14.295Z,13.49
2022-09-15T06:08:48.214Z,13.42
2022-09-15T06:11:20.656Z,13.45
2022-09-15T06:13:47.599Z,13.32
2022-09-15T06:16:19.612Z,13.40
2022-09-15T06:18:48.198Z,13.32
2022-09-15T06:21:17.248Z,13.36
2022-09-15T06:23:48.466Z,13.46
2022-09-15T06:26:18.972Z,13.52
2022-09-15T06:28:51.534Z,13.54
2022-09-15T06:31:19.177Z,13.57
2022-09-15T06:33:51.554Z,13.61
2022-09-15T06:36:19.631Z,13.68
2022-09-15T06:38:46.529Z,13.67
2022-09-15T06:41:14.126Z,13.73
2022-09-15T06:43:40.925Z,13.79
2022-09-15T06:46:13.669Z,13.92
2022-09-15T06:48:41.095Z,13.94
2022-09-15T06:51:10.373Z,13.96
2022-09-15T06:53:38.454Z,14.00
2022-09-15T06:56:06.845Z,14.05
2022-09-15T06:58:38.398Z,14.09
2022-09-15T07:01:10.200Z,14.03
2022-09-15T07:03:38.647Z,13.95
2022-09-15T07:06:06.473Z,13.92
2022-09-15T07:08:33.358Z,13.81
2022-09-15T07:10:59.945Z,13.77
2022-09-15T07:13:26.489Z,13.83
2022-09-15T07:15:55.376Z,13.58
2022-09-15T07:18:23.156Z,13.58
2022-09-15T07:20:50.479Z,13.53
2022-09-15T07:23:18.160Z,13.62
2022-09-15T07:25:45.449Z,13.48
2022-09-15T07:28:12.525Z,13.39
2022-09-15T07:30:39.521Z,13.38
2022-09-15T07:33:07.633Z,13.15
2022-09-15T07:35:34.803Z,12.94
2022-09-15T07:38:01.521Z,12.88
2022-09-15T07:40:29.208Z,12.71
2022-09-15T07:42:56.159Z,12.79
2022-09-15T07:45:23.396Z,12.80
2022-09-15T07:47:50.000Z,12.80
2022-09-15T07:50:16.882Z,13.00
2022-09-15T07:52:43.469Z,13.09
2022-09-15T07:55:10.208Z,13.21
2022-09-15T07:57:36.811Z,13.38
2022-09-15T08:00:04.926Z,13.40
2022-09-15T08:02:31.532Z,13.53
2022-09-15T08:04:58.332Z,13.73
2022-09-15T08:07:25.119Z,13.91
2022-09-15T08:09:51.880Z,14.11
2022-09-15T08:12:19.150Z,14.25
2022-09-15T08:14:45.834Z,14.26
2022-09-15T08:17:12.421Z,14.51
2022-09-15T08:19:38.819Z,14.74
2022-09-15T08:22:05.636Z,15.10
2022-09-15T08:24:32.257Z,15.53
2022-09-15T08:26:58.679Z,15.97
2022-09-15T08:29:25.223Z,15.90
2022-09-15T08:31:51.678Z,15.84
2022-09-15T08:34:18.307Z,15.73
2022-09-15T08:36:44.861Z,15.52
2022-09-15T08:39:11.833Z,15.51
2022-09-15T08:41:46.745Z,15.34
2022-09-15T08:44:36.387Z,15.35
2022-09-15T08:47:11.344Z,15.58
2022-09-15T08:49:52.425Z,15.81
2022-09-15T08:52:31.690Z,16.24
2022-09-15T08:55:01.095Z,16.11
2022-09-15T08:57:27.742Z,16.26
2022-09-15T08:59:55.066Z,16.69
2022-09-15T09:03:06.473Z,16.98
2022-09-15T09:05:52.298Z,17.32
2022-09-15T09:08:24.534Z,17.14
2022-09-15T09:10:58.957Z,17.24
2022-09-15T09:13:25.389Z,17.11
2022-09-15T09:16:23.505Z,17.30
2022-09-15T09:18:58.678Z,18.05
2022-09-15T09:21:31.283Z,18.01
2022-09-15T09:24:30.491Z,17.34
2022-09-15T09:26:57.018Z,17.09
2022-09-15T09:29:37.257Z,17.15
2022-09-15T09:32:11.125Z,17.13
2022-09-15T09:34:48.525Z,16.77
2022-09-15T09:37:16.761Z,16.71
2022-09-15T09:39:43.437Z,16.82
2022-09-15T09:42:15.469Z,17.20
2022-09-15T09:44:42.524Z,17.72
2022-09-15T09:47:09.287Z,17.88
2022-09-15T09:49:42.623Z,18.12
2022-09-15T09:52:09.318Z,18.52
2022-09-15T09:54:36.168Z,18.81
2022-09-15T09:57:21.774Z,19.04
2022-09-15T09:59:50.333Z,19.56
2022-09-15T10:02:24.880Z,19.65
2022-09-15T10:05:18.260Z,18.95
2022-09-15T10:07:44.877Z,18.69
2022-09-15T10:10:25.961Z,18.57
2022-09-15T10:12:56.636Z,18.33
2022-09-15T10:15:32.343Z,18.04
2022-09-15T10:17:58.880Z,18.07
2022-09-15T10:20:45.780Z,18.24
2022-09-15T10:23:18.013Z,18.02
2022-09-15T10:26:01.087Z,17.91
2022-09-15T10:28:28.002Z,18.46
2022-09-15T10:31:06.937Z,18.76
2022-09-15T10:33:36.752Z,18.38
2022-09-15T10:36:17.218Z,18.37
2022-09-15T10:38:46.575Z,18.20
2022-09-15T10:41:46.290Z,17.79
2022-09-15T10:44:57.901Z,17.49
2022-09-15T10:47:31.758Z,17.48
2022-09-15T10:50:22.249Z,17.35
2022-09-15T10:53:10.654Z,17.10
2022-09-15T10:56:01.641Z,17.20
2022-09-15T10:58:52.394Z,16.94
2022-09-15T11:01:30.807Z,16.86
2022-09-15T11:04:12.276Z,17.04
2022-09-15T11:06:50.238Z,17.44
2022-09-15T11:09:25.848Z,17.85
2022-09-15T11:12:08.082Z,18.37
2022-09-15T11:14:50.398Z,17.94
2022-09-15T11:17:41.074Z,18.32
2022-09-15T11:20:19.816Z,18.31
2022-09-15T11:22:52.940Z,18.08
2022-09-15T11:25:23.709Z,17.88
2022-09-15T11:28:47.665Z,17.39
2022-09-15T11:31:25.053Z,16.84
2022-09-15T11:34:13.352Z,17.03
2022-09-15T11:36:49.967Z,17.12
2022-09-15T11:39:24.114Z,17.47
2022-09-15T11:41:56.722Z,17.49
2022-09-15T11:44:31.473Z,17.54
2022-09-15T11:47:13.904Z,17.43
2022-09-15T11:49:55.437Z,17.23
2022-09-15T11:52:43.723Z,17.54
2022-09-15T11:55:22.014Z,17.21
2022-09-15T11:57:58.504Z,17.22
2022-09-15T12:00:25.318Z,17.23
2022-09-15T12:03:18.111Z,16.94
2022-09-15T12:06:03.467Z,16.75
2022-09-15T12:08:43.598Z,16.69
2022-09-15T12:11:19.660Z,16.63
2022-09-15T12:13:46.883Z,16.43
2022-09-15T12:16:15.014Z,16.35
2022-09-15T12:18:59.735Z,16.05
2022-09-15T12:21:45.458Z,16.03
2022-09-15T12:24:23.515Z,15.96
2022-09-15T12:26:50.408Z,15.76
2022-09-15T12:29:26.136Z,15.85
2022-09-15T12:32:22.525Z,16.02
2022-09-15T12:34:56.183Z,16.20
2022-09-15T12:37:24.626Z,16.27
2022-09-15T12:39:53.179Z,16.26
2022-09-15T12:42:31.464Z,16.48
2022-09-15T12:45:19.916Z,16.44
2022-09-15T12:47:57.519Z,16.23
2022-09-15T12:50:31.572Z,16.16
2022-09-15T12:53:20.351Z,16.39
2022-09-15T12:56:01.029Z,16.70
2022-09-15T12:58:45.739Z,16.88
2022-09-15T13:01:18.822Z,16.61
2022-09-15T13:03:45.795Z,16.76
2022-09-15T13:06:35.910Z,17.00
2022-09-15T13:09:03.240Z,17.11
2022-09-15T13:11:31.839Z,17.05
2022-09-15T13:14:04.610Z,16.80
2022-09-15T13:16:34.930Z,16.90
2022-09-15T14:11:10.971Z,17.53
2022-09-15T14:13:41.998Z,17.86
2022-09-15T14:16:27.809Z,17.56
2022-09-15T14:18:57.937Z,17.39
2022-09-15T14:24:30.223Z,17.15
2022-09-15T14:27:07.734Z,17.40
2022-09-15T14:32:25.663Z,17.55
2022-09-15T14:34:53.673Z,17.41
2022-09-15T14:37:28.547Z,17.57
2022-09-15T14:39:57.502Z,17.29
2022-09-15T14:42:31.155Z,16.91
2022-09-15T14:48:01.244Z,17.24
2022-09-15T14:50:32.846Z,17.04
2022-09-15T14:53:13.628Z,17.22
2022-09-15T14:55:52.234Z,17.06
2022-09-15T14:58:27.798Z,17.07
2022-09-15T15:01:02.370Z,17.27
2022-09-15T15:03:43.994Z,17.25
2022-09-15T15:06:39.743Z,17.36
2022-09-15T15:09:24.128Z,17.43
2022-09-15T15:12:02.071Z,17.27
2022-09-15T15:14:29.268Z,17.05
2022-09-15T15:17:08.451Z,17.23
2022-09-15T15:19:39.708Z,17.27
2022-09-15T15:22:27.096Z,17.23
2022-09-15T15:24:54.408Z,17.17
2022-09-15T15:27:33.103Z,16.97
2022-09-15T15:30:29.745Z,16.67
2022-09-15T15:33:02.300Z,16.71
2022-09-15T15:35:30.132Z,16.73
2022-09-15T15:38:25.427Z,16.73
2022-09-15T15:41:03.694Z,16.78
2022-09-15T15:43:30.669Z,16.85
2022-09-15T15:46:03.558Z,16.79
2022-09-15T15:48:37.787Z,16.62
2022-09-15T15:51:06.840Z,16.75
2022-09-15T15:53:34.454Z,16.80
2022-09-15T15:56:01.449Z,16.59
2022-09-15T15:58:28.281Z,16.51
2022-09-15T16:00:59.385Z,16.43
2022-09-15T16:03:26.185Z,16.52
2022-09-15T16:05:56.894Z,16.49
2022-09-15T16:08:32.771Z,16.45
2022-09-15T16:11:01.730Z,16.32
2022-09-15T16:13:28.916Z,16.33
2022-09-15T16:16:00.559Z,16.26
2022-09-15T16:18:28.645Z,16.28
2022-09-15T16:20:55.351Z,16.31
2022-09-15T16:23:23.432Z,16.27
2022-09-15T16:25:59.486Z,16.37
2022-09-15T16:28:26.527Z,16.34
2022-09-15T16:30:53.262Z,16.29
2022-09-15T16:33:20.575Z,16.23
2022-09-15T16:35:55.393Z,16.27
2022-09-15T16:38:25.583Z,16.14
2022-09-15T16:40:52.538Z,16.32
2022-09-15T16:43:24.021Z,16.37
2022-09-15T16:45:52.022Z,16.12
2022-09-15T16:48:19.129Z,16.13
2022-09-15T16:51:02.162Z,16.08
2022-09-15T16:53:33.517Z,16.08
2022-09-15T16:56:00.077Z,15.92
2022-09-15T16:58:26.749Z,15.85
2022-09-15T17:00:53.658Z,15.89
2022-09-15T17:03:23.885Z,15.88
2022-09-15T17:05:55.588Z,15.93
2022-09-15T17:08:24.563Z,15.77
2022-09-15T17:10:52.994Z,15.75
2022-09-15T17:13:23.942Z,15.64
2022-09-15T17:15:54.213Z,15.68
2022-09-15T17:18:21.548Z,15.50
2022-09-15T17:20:50.088Z,15.47
2022-09-15T17:23:35.625Z,15.53
2022-09-15T17:26:05.819Z,15.28
2022-09-15T17:28:34.410Z,15.17
2022-09-15T17:31:03.564Z,15.18
2022-09-15T17:33:31.542Z,15.01
2022-09-15T17:35:58.901Z,14.97
2022-09-15T17:38:25.765Z,15.05
2022-09-15T17:40:53.044Z,14.81
2022-09-15T17:43:22.293Z,14.84
2022-09-15T17:45:50.098Z,14.86
2022-09-15T17:48:17.005Z,14.84
2022-09-15T17:50:45.334Z,14.91
2022-09-15T17:53:14.136Z,14.89
2022-09-15T17:55:40.682Z,14.93
2022-09-15T17:58:07.295Z,14.90
2022-09-15T18:00:37.243Z,14.83
2022-09-15T18:03:13.885Z,14.85
2022-09-15T18:05:40.411Z,14.75
2022-09-15T18:08:07.132Z,14.75
2022-09-15T18:10:35.753Z,14.74
2022-09-15T18:13:04.057Z,14.66
2022-09-15T18:15:33.182Z,14.54
2022-09-15T18:18:04.335Z,14.61
2022-09-15T18:20:33.043Z,14.49
2022-09-15T18:23:00.463Z,14.35
2022-09-15T18:25:35.220Z,14.26
2022-09-15T18:28:02.834Z,14.19
2022-09-15T18:30:31.910Z,14.18
2022-09-15T18:32:59.412Z,14.16
2022-09-15T18:35:26.619Z,13.99
2022-09-15T18:37:59.022Z,14.01
2022-09-15T18:40:27.735Z,13.92
2022-09-15T18:42:54.545Z,13.87
2022-09-15T18:45:22.280Z,13.83
2022-09-15T18:47:50.787Z,13.80
2022-09-15T18:50:20.530Z,13.83
2022-09-15T18:52:47.957Z,13.80
2022-09-15T18:55:20.229Z,13.77
2022-09-15T18:57:47.556Z,13.78
2022-09-15T19:00:17.706Z,13.77
2022-09-15T19:02:44.482Z,13.68
2022-09-15T19:05:11.905Z,13.67
2022-09-15T19:07:39.048Z,13.67
2022-09-15T19:10:07.428Z,13.70
2022-09-15T19:12:35.799Z,13.72
2022-09-15T19:15:10.753Z,13.79
2022-09-15T19:17:38.452Z,13.70
2022-09-15T19:20:07.247Z,13.73
2022-09-15T19:22:34.151Z,13.68
2022-09-15T19:25:00.812Z,13.72
2022-09-15T19:27:28.067Z,13.75
2022-09-15T19:29:54.599Z,13.79
2022-09-15T19:32:22.171Z,13.88
2022-09-15T19:34:48.979Z,13.89
2022-09-15T19:37:19.757Z,13.94
2022-09-15T19:39:47.685Z,13.93
2022-09-15T19:44:41.569Z,13.88
2022-09-15T19:47:08.878Z,13.97
2022-09-15T19:49:35.825Z,13.93
2022-09-15T19:52:02.565Z,13.97
2022-09-15T19:54:30.613Z,14.08
2022-09-15T19:56:57.746Z,14.06
2022-09-15T19:59:28.725Z,14.05
2022-09-15T20:01:57.514Z,14.00
2022-09-15T20:04:24.490Z,13.96
2022-09-15T20:06:51.171Z,14.10
2022-09-15T20:09:17.695Z,14.11
2022-09-15T20:11:44.720Z,14.06
2022-09-15T20:14:11.541Z,13.97
2022-09-15T20:16:38.319Z,13.95
2022-09-15T20:19:05.097Z,13.92
2022-09-15T20:21:51.362Z,14.00
2022-09-15T20:24:19.227Z,13.93
2022-09-15T20:26:45.743Z,14.02
2022-09-15T20:29:12.719Z,13.97
2022-09-15T20:31:39.405Z,13.89
2022-09-15T20:34:06.055Z,13.85
2022-09-15T20:36:36.623Z,13.87
2022-09-15T20:39:08.002Z,13.86
2022-09-15T20:41:35.127Z,13.89
2022-09-15T20:44:01.956Z,13.89
2022-09-15T20:46:31.762Z,13.84
2022-09-15T20:48:58.276Z,13.83
2022-09-15T20:51:27.977Z,13.79
2022-09-15T20:53:56.173Z,13.83
2022-09-15T20:56:25.708Z,13.81
2022-09-15T20:58:59.843Z,13.80
2022-09-15T21:01:28.858Z,13.81
2022-09-15T21:03:56.093Z,13.83
2022-09-15T21:06:26.302Z,13.87
2022-09-15T21:08:53.822Z,13.85
2022-09-15T21:11:21.390Z,13.85
2022-09-15T21:13:49.345Z,13.83
2022-09-15T21:16:18.540Z,13.90
2022-09-15T21:18:45.599Z,13.90
2022-09-15T21:21:18.315Z,13.89
2022-09-15T21:23:47.229Z,13.86
2022-09-15T21:26:19.738Z,13.93
2022-09-15T21:28:46.612Z,13.97
2022-09-15T21:31:16.310Z,13.93
2022-09-15T21:33:44.178Z,13.99
2022-09-15T21:36:13.136Z,13.95
2022-09-15T21:38:41.482Z,13.93
2022-09-15T21:41:10.047Z,13.94
2022-09-15T21:43:38.838Z,13.95
2022-09-15T21:46:17.026Z,13.92
2022-09-15T21:48:44.463Z,14.01
2022-09-15T21:51:13.248Z,13.91
2022-09-15T21:53:40.666Z,14.03
2022-09-15T21:56:09.421Z,14.01
2022-09-15T21:58:42.290Z,14.01
2022-09-15T22:01:29.389Z,13.99
2022-09-15T22:04:01.737Z,14.00
2022-09-15T22:06:31.932Z,13.97
2022-09-15T22:09:00.810Z,13.93
2022-09-15T22:11:27.753Z,14.00
2022-09-15T22:13:54.399Z,13.93
2022-09-15T22:16:22.970Z,13.94
2022-09-15T22:18:50.814Z,13.91
2022-09-15T22:21:20.468Z,13.86
2022-09-15T22:23:49.021Z,13.92
2022-09-15T22:26:18.116Z,13.87
2022-09-15T22:28:45.295Z,13.80
2022-09-15T22:31:13.626Z,13.86
2022-09-15T22:33:41.399Z,13.84
2022-09-15T22:36:10.773Z,13.77
2022-09-15T22:38:37.761Z,13.67
2022-09-15T22:41:07.277Z,13.66
2022-09-15T22:43:33.822Z,13.64
2022-09-15T22:46:00.556Z,13.74
2022-09-15T22:48:27.405Z,13.79
2022-09-15T22:50:54.198Z,13.74
2022-09-15T22:53:22.026Z,13.78
2022-09-15T22:55:48.582Z,13.77
2022-09-15T22:58:15.210Z,13.85
2022-09-15T23:00:41.977Z,13.81
2022-09-15T23:03:09.277Z,13.74
2022-09-15T23:05:36.285Z,13.81
2022-09-15T23:08:03.422Z,13.91
2022-09-15T23:10:30.918Z,13.89
2022-09-15T23:13:00.713Z,13.88
2022-09-15T23:15:28.189Z,13.72
2022-09-15T23:17:54.772Z,13.63
2022-09-15T23:20:21.700Z,13.49
2022-09-15T23:22:48.339Z,13.42
2022-09-15T23:25:14.950Z,13.31
2022-09-15T23:27:41.573Z,13.18
2022-09-15T23:30:08.845Z,13.10
2022-09-15T23:32:35.556Z,12.97
2022-09-15T23:35:02.207Z,12.87
2022-09-15T23:37:28.814Z,12.93
2022-09-15T23:39:55.553Z,12.85
2022-09-15T23:42:22.183Z,12.79
2022-09-15T23:44:48.787Z,12.74
2022-09-15T23:47:15.408Z,12.71
2022-09-15T23:49:41.916Z,12.61
2022-09-15T23:52:08.352Z,12.57
2022-09-15T23:54:34.833Z,12.58
2022-09-15T23:57:01.494Z,12.70
2022-09-15T23:59:28.082Z,12.67
